Time;durP1;ratioP1;P1;durP2;ratioP2;P2;SDS_P1;SDS_P2;PMS_P1;PMS_P2;Temp;Humidity;BMP_temperature;BMP_pressure;BME280_temperature;BME280_humidity;BME280_pressure;Samples;Min_cycle;Max_cycle;Signal;HPM_P1;HPM_P2
2023/03/01 00:01:09;;;;;;;0.10;0.10;;;;;;;2.46;69.02;103341.22;5095347;28;20028;-82
2023/03/01 00:03:36;;;;;;;0.10;0.10;;;;;;;2.42;68.47;103337.53;5095975;28;20020;-82
2023/03/01 00:06:04;;;;;;;0.10;0.10;;;;;;;2.39;68.99;103339.09;5096599;28;20169;-86
2023/03/01 00:08:32;;;;;;;0.10;0.10;;;;;;;2.38;69.44;103329.44;5096960;28;20032;-82
2023/03/01 00:13:43;;;;;;;0.10;0.10;;;;;;;2.42;68.98;103318.34;5071720;28;20456;-82
2023/03/01 00:16:13;;;;;;;0.10;0.10;;;;;;;2.39;70.49;103323.38;5029968;28;20022;-81
2023/03/01 00:18:39;;;;;;;0.10;0.10;;;;;;;2.41;70.20;103317.41;5029851;28;20022;-81
2023/03/01 00:21:05;;;;;;;0.10;0.10;;;;;;;2.46;69.35;103320.28;5032493;28;20037;-80
2023/03/01 00:23:34;;;;;;;0.10;0.10;;;;;;;2.43;69.44;103321.03;5030117;28;20290;-81
2023/03/01 00:26:00;;;;;;;0.20;0.20;;;;;;;2.42;69.32;103318.34;5032100;28;20097;-80
2023/03/01 00:28:26;;;;;;;0.20;0.20;;;;;;;2.39;68.71;103315.53;5029174;28;20026;-81
2023/03/01 00:30:53;;;;;;;0.20;0.20;;;;;;;2.36;69.40;103320.63;5031637;28;20032;-82
2023/03/01 00:33:21;;;;;;;0.20;0.20;;;;;;;2.33;69.99;103321.38;5028260;28;20503;-81
2023/03/01 00:35:47;;;;;;;0.10;0.10;;;;;;;2.30;70.23;103318.56;5032298;28;20076;-82
2023/03/01 00:38:13;;;;;;;0.10;0.10;;;;;;;2.26;69.30;103317.50;5032888;28;20025;-83
2023/03/01 00:40:40;;;;;;;0.20;0.20;;;;;;;2.24;69.37;103321.75;5031103;28;20112;-84
2023/03/01 00:43:06;;;;;;;0.10;0.10;;;;;;;2.18;69.18;103321.44;5033937;28;20034;-84
2023/03/01 00:45:33;;;;;;;0.10;0.10;;;;;;;2.12;69.71;103309.72;5031055;28;20655;-81
2023/03/01 00:47:59;;;;;;;0.20;0.20;;;;;;;2.07;69.23;103322.56;5027980;28;20026;-82
2023/03/01 00:50:25;;;;;;;0.10;0.10;;;;;;;2.04;69.45;103322.38;5029183;28;20034;-84
2023/03/01 00:52:55;;;;;;;0.10;0.10;;;;;;;2.03;69.20;103323.19;5030134;28;20017;-84
2023/03/01 00:55:21;;;;;;;0.10;0.10;;;;;;;2.02;68.67;103317.06;5029400;28;20113;-83
2023/03/01 00:57:47;;;;;;;0.20;0.20;;;;;;;2.00;69.64;103317.81;5034051;28;20544;-82
2023/03/01 01:00:13;;;;;;;0.10;0.10;;;;;;;2.00;69.87;103312.56;5029179;28;20049;-83
2023/03/01 01:02:41;;;;;;;0.10;0.10;;;;;;;2.03;69.33;103313.66;5029951;28;20404;-83
2023/03/01 01:05:07;;;;;;;0.30;0.30;;;;;;;2.04;69.38;103312.81;5031027;28;20100;-83
2023/03/01 01:07:33;;;;;;;0.20;0.20;;;;;;;2.01;70.88;103317.88;5030398;28;20041;-83
2023/03/01 01:09:59;;;;;;;0.15;0.15;;;;;;;2.05;70.60;103313.72;5030006;28;20052;-83
2023/03/01 01:12:26;;;;;;;0.35;0.35;;;;;;;2.07;70.08;103322.56;5030402;28;20032;-83
2023/03/01 01:14:52;;;;;;;0.20;0.20;;;;;;;2.08;70.85;103321.72;5031271;28;20041;-83
2023/03/01 01:17:18;;;;;;;0.20;0.20;;;;;;;2.10;70.14;103314.88;5029469;28;20025;-83
2023/03/01 01:19:45;;;;;;;2.17;1.85;;;;;;;2.12;70.06;103312.31;5028294;28;20123;-84
2023/03/01 01:22:11;;;;;;;0.20;0.20;;;;;;;2.08;70.53;103321.72;5029126;28;20025;-83
2023/03/01 01:24:38;;;;;;;0.10;0.10;;;;;;;2.07;70.43;103309.47;5019346;28;20108;-83
2023/03/01 01:27:04;;;;;;;0.20;0.20;;;;;;;2.07;69.70;103309.47;5015916;28;20034;-83
2023/03/01 01:29:30;;;;;;;0.20;0.20;;;;;;;2.06;70.21;103298.09;5048353;28;20093;-84
2023/03/01 01:31:56;;;;;;;0.10;0.10;;;;;;;2.06;70.75;103294.59;5016327;28;20104;-83
2023/03/01 01:34:22;;;;;;;0.10;0.10;;;;;;;2.06;70.75;103286.75;5013814;28;20030;-83
2023/03/01 01:36:50;;;;;;;0.10;0.10;;;;;;;2.06;70.59;103286.75;5014307;28;20493;-83
2023/03/01 01:39:17;;;;;;;0.20;0.20;;;;;;;2.06;70.20;103276.31;5018062;28;20029;-84
2023/03/01 01:41:43;;;;;;;0.13;0.13;;;;;;;2.04;70.23;103272.69;5012327;28;20452;-82
2023/03/01 01:44:15;;;;;;;0.10;0.10;;;;;;;2.05;70.66;103261.41;5013214;28;20030;-82
2023/03/01 01:46:45;;;;;;;0.10;0.10;;;;;;;2.06;70.58;103260.59;5013861;28;20026;-83
2023/03/01 01:49:23;;;;;;;0.13;0.13;;;;;;;2.06;70.17;103260.59;5013593;28;20556;-84
2023/03/01 01:51:55;;;;;;;0.30;0.30;;;;;;;2.01;70.55;103264.69;5012637;28;20022;-83
2023/03/01 01:54:27;;;;;;;0.20;0.20;;;;;;;1.99;70.41;103261.09;5014891;28;20026;-82
2023/03/01 01:57:00;;;;;;;0.20;0.20;;;;;;;1.98;70.25;103251.44;5014851;28;20022;-83
2023/03/01 01:59:31;;;;;;;0.20;0.20;;;;;;;1.94;70.96;103252.97;5013751;28;20583;-84
2023/03/01 02:02:00;;;;;;;2.53;2.40;;;;;;;1.89;70.49;103257.94;5014926;28;20025;-83
2023/03/01 02:04:26;;;;;;;0.20;0.20;;;;;;;1.85;70.44;103261.22;5013963;28;20489;-83
2023/03/01 02:07:07;;;;;;;0.63;0.63;;;;;;;1.84;70.18;103253.31;5015196;28;20034;-82
2023/03/01 02:09:34;;;;;;;0.20;0.20;;;;;;;1.81;70.27;103259.25;5011127;28;20030;-82
2023/03/01 02:12:01;;;;;;;0.20;0.20;;;;;;;1.78;70.57;103267.84;5013344;28;20022;-82
2023/03/01 02:14:28;;;;;;;2.08;0.95;;;;;;;1.75;70.50;103259.81;5013719;28;20030;-81
2023/03/01 02:16:54;;;;;;;0.20;0.20;;;;;;;1.74;70.57;103259.72;5012896;28;20061;-82
2023/03/01 02:19:33;;;;;;;0.20;0.20;;;;;;;1.76;70.54;103250.28;5014336;28;20038;-82
2023/03/01 02:22:25;;;;;;;0.52;0.52;;;;;;;1.77;70.71;103249.47;5012070;28;20017;-82
2023/03/01 02:27:46;;;;;;;1.67;0.85;;;;;;;1.73;69.54;103242.25;5090541;27;20381;-83
2023/03/01 02:30:12;;;;;;;0.20;0.20;;;;;;;1.64;69.85;103244.38;5081642;28;20112;-82
2023/03/01 02:32:41;;;;;;;0.20;0.20;;;;;;;1.59;70.37;103247.59;5080380;28;20558;-81
2023/03/01 02:35:14;;;;;;;0.20;0.20;;;;;;;1.55;70.18;103249.97;5086301;28;20024;-82
2023/03/01 02:37:41;;;;;;;;;;;;;;;1.61;70.04;103245.97;5082736;28;20082;-82
2023/03/01 02:40:13;;;;;;;0.20;0.20;;;;;;;1.48;69.59;103245.22;5070180;28;19934;-83
2023/03/01 02:42:49;;;;;;;0.20;0.20;;;;;;;1.44;70.70;103246.75;5070208;28;20031;-82
2023/03/01 02:45:15;;;;;;;0.10;0.10;;;;;;;1.38;69.89;103243.78;5071328;28;20021;-82
2023/03/01 02:47:42;;;;;;;0.10;0.10;;;;;;;1.33;70.47;103235.69;5071231;28;20094;-82
2023/03/01 02:55:44;;;;;;;0.10;0.10;;;;;;;1.32;70.71;103226.06;5103360;27;20386;-82
2023/03/01 02:58:10;;;;;;;0.20;0.20;;;;;;;1.31;70.38;103225.97;5090572;28;20051;-83
2023/03/01 03:00:46;;;;;;;0.20;0.20;;;;;;;1.31;69.96;103225.97;5090769;28;20099;-82
2023/03/01 03:03:15;;;;;;;0.20;0.20;;;;;;;1.27;70.06;103224.88;5090026;28;20050;-82
2023/03/01 03:05:41;;;;;;;0.10;0.10;;;;;;;1.24;70.40;103217.78;5090749;28;20394;-82
2023/03/01 03:08:08;;;;;;;0.20;0.20;;;;;;;1.24;70.14;103220.41;5091074;28;20028;-82
2023/03/01 03:10:37;;;;;;;0.20;0.20;;;;;;;1.25;70.31;103218.69;5091122;28;20092;-83
2023/03/01 03:13:07;;;;;;;0.80;0.80;;;;;;;1.25;70.59;103214.38;5090574;28;20032;-83
2023/03/01 03:15:38;;;;;;;0.20;0.20;;;;;;;1.23;70.55;103215.09;5093561;28;20406;-83
2023/03/01 03:18:07;;;;;;;0.20;0.20;;;;;;;1.21;70.43;103222.84;5096609;28;20024;-83
2023/03/01 03:20:34;;;;;;;0.85;0.85;;;;;;;1.16;70.36;103208.63;5093788;28;20051;-82
2023/03/01 03:23:00;;;;;;;1.05;0.95;;;;;;;1.13;69.53;103217.19;5093529;28;20111;-83
2023/03/01 03:25:28;;;;;;;0.50;0.50;;;;;;;1.09;70.39;103217.81;5092160;28;20020;-83
2023/03/01 03:27:56;;;;;;;0.10;0.10;;;;;;;1.05;69.67;103207.13;5092701;28;20029;-83
2023/03/01 03:30:26;;;;;;;0.17;0.17;;;;;;;1.02;69.69;103214.75;5092110;28;20419;-83
2023/03/01 03:32:52;;;;;;;2.35;1.13;;;;;;;0.99;69.87;103209.38;5093181;28;20024;-83
2023/03/01 03:35:21;;;;;;;0.20;0.20;;;;;;;0.98;69.92;103208.47;5091904;28;20048;-84
2023/03/01 03:38:02;;;;;;;0.30;0.30;;;;;;;0.98;70.16;103204.97;5091237;28;20028;-83
2023/03/01 03:40:34;;;;;;;0.10;0.10;;;;;;;0.98;69.18;103208.47;5090184;28;20081;-83
2023/03/01 03:43:01;;;;;;;0.30;0.30;;;;;;;0.92;68.57;103201.19;5090435;28;20020;-83
2023/03/01 03:45:27;;;;;;;0.10;0.10;;;;;;;0.86;68.89;103205.13;5089648;28;20036;-82
2023/03/01 03:47:53;;;;;;;0.20;0.20;;;;;;;0.79;68.80;103201.28;5089760;28;20024;-83
2023/03/01 03:50:19;;;;;;;0.10;0.10;;;;;;;0.76;69.03;103202.00;5090513;28;20028;-82
2023/03/01 03:52:45;;;;;;;0.20;0.20;;;;;;;0.75;68.59;103199.31;5089636;28;20049;-82
2023/03/01 03:55:12;;;;;;;0.15;0.15;;;;;;;0.71;68.69;103192.09;5089188;28;20376;-83
2023/03/01 03:57:40;;;;;;;0.20;0.20;;;;;;;0.69;69.31;103193.75;5089591;28;20423;-84
2023/03/01 04:00:13;;;;;;;0.30;0.30;;;;;;;0.66;69.30;103193.53;5089708;28;20108;-83
2023/03/01 04:02:41;;;;;;;0.15;0.15;;;;;;;0.66;70.00;103193.53;5089886;28;20115;-82
2023/03/01 04:05:09;;;;;;;0.20;0.20;;;;;;;0.66;69.96;103190.94;5087340;28;20031;-83
2023/03/01 04:07:36;;;;;;;0.30;0.30;;;;;;;0.68;69.50;103194.53;5076209;28;20803;-83
2023/03/01 04:10:06;;;;;;;0.17;0.17;;;;;;;0.69;69.36;103194.63;5076671;28;20163;-83
2023/03/01 04:12:33;;;;;;;0.20;0.20;;;;;;;0.69;70.26;103196.34;5076442;28;20391;-83
2023/03/01 04:15:01;;;;;;;0.10;0.10;;;;;;;0.72;70.19;103189.56;5075398;28;20491;-83
2023/03/01 04:17:27;;;;;;;0.10;0.10;;;;;;;0.75;70.81;103194.09;5076438;28;20082;-82
2023/03/01 04:19:53;;;;;;;0.20;0.20;;;;;;;0.79;70.56;103190.84;5076564;28;20032;-83
2023/03/01 04:22:19;;;;;;;0.20;0.20;;;;;;;0.83;70.48;103197.16;5075996;28;20071;-83
2023/03/01 04:24:45;;;;;;;3.10;1.55;;;;;;;0.83;70.95;103192.81;5075867;28;20032;-82
2023/03/01 04:27:12;;;;;;;0.20;0.20;;;;;;;0.85;71.69;103185.06;5075678;28;20024;-82
2023/03/01 04:29:38;;;;;;;0.22;0.22;;;;;;;0.87;71.14;103194.78;5075666;28;20024;-82
2023/03/01 04:32:04;;;;;;;1.00;1.00;;;;;;;0.88;70.98;103186.16;5074361;28;20039;-81
2023/03/01 04:34:31;;;;;;;0.20;0.20;;;;;;;0.88;71.25;103190.47;5074612;28;20025;-82
2023/03/01 04:36:57;;;;;;;0.73;0.73;;;;;;;0.87;70.30;103194.78;5074807;28;20040;-82
2023/03/01 04:39:23;;;;;;;0.20;0.20;;;;;;;0.81;70.51;103189.25;5074869;28;20020;-83
2023/03/01 04:41:49;;;;;;;0.10;0.10;;;;;;;0.79;70.10;103183.91;5074494;28;20032;-81
2023/03/01 04:44:15;;;;;;;0.10;0.10;;;;;;;0.76;70.39;103185.44;5074121;28;20021;-81
2023/03/01 04:46:41;;;;;;;0.20;0.20;;;;;;;0.73;69.97;103177.44;5074654;28;20036;-83
2023/03/01 04:49:07;;;;;;;0.10;0.10;;;;;;;0.71;69.54;103171.22;5072862;28;20081;-82
2023/03/01 04:51:33;;;;;;;0.20;0.20;;;;;;;0.69;69.83;103178.09;5074279;28;20093;-82
2023/03/01 04:54:00;;;;;;;0.20;0.20;;;;;;;0.68;69.82;103176.28;5073541;28;20041;-83
2023/03/01 04:56:27;;;;;;;0.10;0.10;;;;;;;0.67;69.73;103172.75;5074096;28;20039;-83
2023/03/01 04:58:54;;;;;;;0.10;0.10;;;;;;;0.63;69.01;103169.06;5074762;28;20036;-83
2023/03/01 05:01:21;;;;;;;0.90;0.90;;;;;;;0.58;68.55;103160.06;5074421;28;20055;-82
2023/03/01 05:03:49;;;;;;;0.75;0.75;;;;;;;0.57;68.61;103155.66;5073329;28;20033;-83
2023/03/01 05:06:16;;;;;;;0.28;0.28;;;;;;;0.54;69.53;103157.22;5074216;28;20043;-82
2023/03/01 05:08:44;;;;;;;0.10;0.10;;;;;;;0.51;69.63;103152.69;5074586;28;20055;-82
2023/03/01 05:11:11;;;;;;;0.45;0.45;;;;;;;0.50;69.40;103157.81;5088268;28;20038;-82
2023/03/01 05:13:39;;;;;;;0.10;0.10;;;;;;;0.48;69.05;103149.91;5096372;28;20068;-83
2023/03/01 05:16:10;;;;;;;0.20;0.20;;;;;;;0.45;68.92;103150.63;5078434;28;20040;-82
2023/03/01 05:18:37;;;;;;;0.20;0.20;;;;;;;0.44;69.08;103151.44;5097063;28;20031;-81
2023/03/01 05:21:07;;;;;;;0.10;0.10;;;;;;;0.44;69.77;103150.56;5098544;28;20036;-81
2023/03/01 05:23:34;;;;;;;0.20;0.20;;;;;;;0.43;70.18;103143.53;5095211;28;20039;-82
2023/03/01 05:26:02;;;;;;;0.43;0.43;;;;;;;0.43;69.41;103140.91;5080113;28;20081;-82
2023/03/01 05:28:28;;;;;;;0.70;0.65;;;;;;;0.42;68.98;103133.91;5078772;28;20032;-85
2023/03/01 05:30:55;;;;;;;0.10;0.10;;;;;;;0.41;69.23;103135.63;5077404;28;20024;-83
2023/03/01 05:33:21;;;;;;;0.20;0.20;;;;;;;0.43;69.38;103127.88;5076581;28;20483;-83
2023/03/01 05:35:49;;;;;;;0.20;0.20;;;;;;;0.42;69.60;103123.47;5075911;28;20028;-83
2023/03/01 05:38:15;;;;;;;0.20;0.20;;;;;;;0.39;69.48;103111.16;5076210;28;20074;-83
2023/03/01 05:40:43;;;;;;;0.13;0.13;;;;;;;0.41;70.03;103108.63;5075974;28;20112;-83
2023/03/01 05:43:11;;;;;;;0.20;0.20;;;;;;;0.42;70.14;103103.50;5075860;28;20028;-85
2023/03/01 05:45:38;;;;;;;0.20;0.20;;;;;;;0.41;70.21;103111.22;5076200;28;20033;-83
2023/03/01 05:48:05;;;;;;;0.20;0.20;;;;;;;0.39;70.29;103110.28;5079565;28;20032;-83
2023/03/01 05:50:36;;;;;;;0.20;0.20;;;;;;;0.36;70.64;103110.06;5077384;28;20602;-84
2023/03/01 05:53:05;;;;;;;0.20;0.20;;;;;;;0.28;70.95;103117.44;5078469;28;20067;-83
2023/03/01 05:55:32;;;;;;;0.10;0.10;;;;;;;0.21;70.15;103113.56;5077685;28;20048;-82
2023/03/01 05:58:01;;;;;;;0.20;0.20;;;;;;;0.17;69.91;103108.97;5076263;28;20044;-84
2023/03/01 06:00:28;;;;;;;0.10;0.10;;;;;;;0.11;70.32;103108.63;5075386;28;20495;-83
2023/03/01 06:02:55;;;;;;;0.20;0.20;;;;;;;0.08;70.35;103103.25;5076166;28;20055;-83
2023/03/01 06:05:22;;;;;;;0.10;0.10;;;;;;;0.06;70.27;103108.34;5076042;28;20029;-83
2023/03/01 06:07:49;;;;;;;0.20;0.20;;;;;;;0.05;70.43;103109.16;5080061;28;20035;-84
2023/03/01 06:10:16;;;;;;;0.20;0.20;;;;;;;0.04;70.07;103106.44;5086558;28;20096;-83
2023/03/01 06:12:43;;;;;;;0.20;0.20;;;;;;;0.02;70.73;103108.09;5078605;28;20024;-84
2023/03/01 06:15:12;;;;;;;0.60;0.60;;;;;;;0.01;70.90;103116.69;5076482;28;20438;-84
2023/03/01 06:17:41;;;;;;;0.20;0.20;;;;;;;0.01;70.79;103111.50;5076908;28;20032;-83
2023/03/01 06:20:12;;;;;;;0.20;0.20;;;;;;;0.05;71.08;103108.25;5076342;28;20020;-82
2023/03/01 06:22:38;;;;;;;0.20;0.20;;;;;;;0.04;70.79;103111.66;5075043;28;20036;-83
2023/03/01 06:25:05;;;;;;;0.20;0.20;;;;;;;0.07;71.09;103111.84;5074514;28;20029;-83
2023/03/01 06:27:31;;;;;;;0.20;0.20;;;;;;;0.10;70.49;103125.06;5074185;28;20082;-83
2023/03/01 06:29:57;;;;;;;0.20;0.20;;;;;;;0.10;70.72;103122.44;5073084;28;20051;-84
2023/03/01 06:32:23;;;;;;;0.60;0.60;;;;;;;0.10;69.88;103117.25;5073450;28;20507;-83
2023/03/01 06:34:50;;;;;;;0.40;0.40;;;;;;;0.07;70.32;103117.06;5065973;28;20495;-83
2023/03/01 06:37:16;;;;;;;0.10;0.10;;;;;;;0.07;70.90;103127.50;5072538;28;20044;-85
2023/03/01 06:39:42;;;;;;;0.20;0.20;;;;;;;0.11;70.89;103125.19;5075891;28;20028;-83
2023/03/01 06:42:09;;;;;;;0.20;0.20;;;;;;;0.14;70.43;103124.47;5063625;28;20051;-83
2023/03/01 06:44:36;;;;;;;0.25;0.25;;;;;;;0.14;69.74;103116.63;5053782;28;20060;-83
2023/03/01 06:47:03;;;;;;;0.20;0.20;;;;;;;0.12;69.91;103124.34;5059568;28;20078;-82
2023/03/01 06:49:29;;;;;;;0.20;0.20;;;;;;;0.10;70.14;103123.38;5072813;28;20029;-83
2023/03/01 06:51:56;;;;;;;0.15;0.15;;;;;;;0.12;70.47;103126.94;5083963;28;20107;-81
2023/03/01 06:54:22;;;;;;;0.20;0.20;;;;;;;0.14;70.73;103122.75;5085862;28;20035;-82
2023/03/01 06:56:50;;;;;;;0.20;0.20;;;;;;;0.20;70.31;103126.50;5073041;28;20033;-83
2023/03/01 06:59:17;;;;;;;0.10;0.10;;;;;;;0.21;70.82;103118.78;5071122;28;20032;-82
2023/03/01 07:01:43;;;;;;;0.20;0.20;;;;;;;0.24;70.41;103116.38;5072404;28;20105;-83
2023/03/01 07:04:10;;;;;;;0.47;0.47;;;;;;;0.30;70.84;103116.72;5080923;28;20080;-84
2023/03/01 07:06:36;;;;;;;0.20;0.20;;;;;;;0.34;70.79;103117.81;5061531;28;20037;-83
2023/03/01 07:09:02;;;;;;;0.20;0.20;;;;;;;0.39;71.17;103124.19;5061623;28;20044;-83
2023/03/01 07:11:28;;;;;;;0.20;0.20;;;;;;;0.43;71.21;103123.56;5068198;28;20115;-83
2023/03/01 07:13:55;;;;;;;0.20;0.20;;;;;;;0.48;71.20;103116.88;5057776;28;20071;-83
2023/03/01 07:16:21;;;;;;;0.10;0.10;;;;;;;0.53;71.58;103122.38;5058428;28;20108;-84
2023/03/01 07:18:47;;;;;;;0.20;0.20;;;;;;;0.57;71.32;103121.75;5064266;28;20029;-83
2023/03/01 07:21:14;;;;;;;0.20;0.20;;;;;;;0.61;70.62;103123.75;5060949;28;20033;-83
2023/03/01 07:23:41;;;;;;;0.20;0.20;;;;;;;0.62;71.18;103125.53;5067847;28;20400;-84
2023/03/01 07:26:07;;;;;;;0.20;0.20;;;;;;;0.66;71.20;103130.91;5060053;28;20549;-85
2023/03/01 07:28:35;;;;;;;0.10;0.10;;;;;;;0.69;70.83;103137.22;5068609;28;20411;-83
2023/03/01 07:31:03;;;;;;;0.55;0.55;;;;;;;0.74;71.04;103133.16;5065227;28;20021;-84
2023/03/01 07:33:29;;;;;;;0.10;0.10;;;;;;;0.80;71.14;103135.25;5071073;28;20029;-85
2023/03/01 07:35:58;;;;;;;0.10;0.10;;;;;;;0.87;71.46;103132.13;5062255;28;20051;-84
2023/03/01 07:38:25;;;;;;;0.52;0.52;;;;;;;0.92;71.67;103133.31;5061225;28;20024;-83
2023/03/01 07:40:51;;;;;;;0.75;0.75;;;;;;;0.98;71.63;103135.38;5060034;28;20033;-84
2023/03/01 07:43:17;;;;;;;0.57;0.57;;;;;;;1.03;71.39;103135.63;5062122;28;21695;-84
2023/03/01 07:45:44;;;;;;;0.63;0.63;;;;;;;1.07;71.43;103134.97;5078642;28;20043;-83
2023/03/01 07:48:10;;;;;;;0.20;0.20;;;;;;;1.13;71.20;103138.84;5079549;28;20031;-83
2023/03/01 07:50:36;;;;;;;0.20;0.20;;;;;;;1.17;71.75;103132.06;5079741;28;20047;-82
2023/03/01 07:53:02;;;;;;;0.20;0.20;;;;;;;1.22;71.21;103129.72;5079289;28;20082;-83
2023/03/01 07:55:28;;;;;;;0.20;0.20;;;;;;;1.25;71.36;103133.41;5078572;28;20056;-83
2023/03/01 07:57:54;;;;;;;0.20;0.20;;;;;;;1.29;71.46;103126.63;5078641;28;20028;-84
2023/03/01 08:00:20;;;;;;;0.20;0.20;;;;;;;1.31;71.26;103129.31;5079602;28;20145;-84
2023/03/01 08:02:46;;;;;;;0.20;0.20;;;;;;;1.34;71.24;103134.75;5077679;28;20040;-83
2023/03/01 08:05:13;;;;;;;0.20;0.20;;;;;;;1.37;71.23;103125.34;5078807;28;20478;-84
2023/03/01 08:07:39;;;;;;;0.10;0.10;;;;;;;1.41;70.97;103126.44;5078233;28;20522;-83
2023/03/01 08:10:05;;;;;;;0.10;0.10;;;;;;;1.46;71.28;103124.97;5076804;28;20066;-84
2023/03/01 08:12:31;;;;;;;0.10;0.10;;;;;;;1.49;71.26;103125.13;5077693;28;20029;-84
2023/03/01 08:14:57;;;;;;;0.20;0.20;;;;;;;1.53;70.95;103126.19;5077888;28;20029;-84
2023/03/01 08:17:24;;;;;;;0.10;0.10;;;;;;;1.57;70.64;103131.66;5078369;28;20032;-83
2023/03/01 08:19:50;;;;;;;0.10;0.10;;;;;;;1.60;71.16;103134.44;5081841;28;20062;-83
2023/03/01 08:22:16;;;;;;;0.10;0.10;;;;;;;1.65;70.82;103120.72;5079851;28;20028;-84
2023/03/01 08:24:42;;;;;;;0.20;0.20;;;;;;;1.71;70.77;103121.06;5079569;28;20024;-83
2023/03/01 08:27:08;;;;;;;0.10;0.10;;;;;;;1.75;70.69;103123.00;5079569;28;20031;-84
2023/03/01 08:29:34;;;;;;;0.20;0.20;;;;;;;1.80;70.76;103116.31;5079073;28;20442;-83
2023/03/01 08:32:00;;;;;;;0.20;0.20;;;;;;;1.85;70.46;103113.94;5077765;28;20022;-84
2023/03/01 08:34:27;;;;;;;0.10;0.10;;;;;;;1.91;70.45;103115.16;5077951;28;20070;-84
2023/03/01 08:36:53;;;;;;;0.20;0.20;;;;;;;1.97;70.46;103106.75;5078038;28;20411;-82
2023/03/01 08:39:20;;;;;;;0.20;0.20;;;;;;;2.04;70.49;103111.44;5077960;28;20101;-84
2023/03/01 08:41:46;;;;;;;0.10;0.10;;;;;;;2.13;70.33;103105.81;5077688;28;20053;-84
2023/03/01 08:44:16;;;;;;;0.20;0.20;;;;;;;2.21;70.29;103112.31;5076902;28;20364;-83
2023/03/01 08:46:43;;;;;;;0.20;0.20;;;;;;;2.29;70.11;103117.94;5078054;28;20024;-84
2023/03/01 08:49:12;;;;;;;0.10;0.10;;;;;;;2.38;70.23;103109.66;5078908;28;20032;-83
2023/03/01 08:51:39;;;;;;;0.20;0.20;;;;;;;2.46;70.05;103103.09;5079287;28;20024;-84
2023/03/01 08:54:10;;;;;;;0.20;0.20;;;;;;;2.56;70.57;103105.34;5077543;28;20467;-84
2023/03/01 08:56:37;;;;;;;0.10;0.10;;;;;;;2.65;70.25;103101.41;5078163;28;20407;-84
2023/03/01 08:59:03;;;;;;;0.10;0.10;;;;;;;2.72;70.53;103104.38;5078109;28;20491;-84
2023/03/01 09:01:29;;;;;;;0.10;0.10;;;;;;;2.84;70.16;103100.56;5077824;28;20091;-84
2023/03/01 09:03:55;;;;;;;0.20;0.20;;;;;;;2.92;69.78;103097.50;5077635;28;20222;-83
2023/03/01 09:06:21;;;;;;;0.20;0.20;;;;;;;3.05;69.73;103093.75;5078195;28;20091;-83
2023/03/01 09:08:50;;;;;;;0.10;0.10;;;;;;;3.18;69.29;103091.72;5078382;28;20048;-82
2023/03/01 09:11:19;;;;;;;0.10;0.10;;;;;;;3.32;68.91;103090.63;5077170;28;20051;-84
2023/03/01 09:13:46;;;;;;;0.13;0.13;;;;;;;3.43;68.79;103075.41;5076761;28;20029;-84
2023/03/01 09:16:14;;;;;;;0.10;0.10;;;;;;;3.57;68.93;103078.63;5077946;28;20039;-83
2023/03/01 09:18:41;;;;;;;0.20;0.20;;;;;;;3.70;68.65;103080.06;5078668;28;20051;-84
2023/03/01 09:21:10;;;;;;;0.22;0.22;;;;;;;3.81;68.04;103070.94;5081169;28;20025;-84
2023/03/01 09:23:40;;;;;;;0.15;0.15;;;;;;;3.93;67.84;103067.97;5079262;28;20058;-83
2023/03/01 09:26:08;;;;;;;0.10;0.10;;;;;;;4.04;67.76;103069.34;5078981;28;20040;-82
2023/03/01 09:28:36;;;;;;;0.10;0.10;;;;;;;4.15;67.44;103066.25;5079406;28;20032;-84
2023/03/01 09:31:03;;;;;;;0.10;0.10;;;;;;;4.24;66.38;103069.28;5079793;28;20028;-84
2023/03/01 09:33:31;;;;;;;0.10;0.10;;;;;;;4.36;66.77;103063.63;5076861;28;20024;-83
2023/03/01 09:38:38;;;;;;;0.10;0.10;;;;;;;4.61;65.54;103059.41;5052230;28;20498;-84
2023/03/01 09:41:22;;;;;;;0.10;0.10;;;;;;;4.75;65.74;103062.56;5054094;28;20057;-82
2023/03/01 09:43:54;;;;;;;0.30;0.30;;;;;;;4.85;65.11;103057.75;5040727;28;20049;-82
2023/03/01 09:46:23;;;;;;;0.20;0.20;;;;;;;4.96;65.71;103062.53;5031076;28;20116;-83
2023/03/01 09:48:57;;;;;;;0.10;0.10;;;;;;;5.09;63.31;103067.44;5030432;28;20026;-82
2023/03/01 09:51:30;;;;;;;0.10;0.10;;;;;;;5.21;63.73;103068.72;5029771;28;20029;-84
2023/03/01 09:53:58;;;;;;;0.10;0.10;;;;;;;5.29;63.61;103059.41;5031097;28;20112;-83
2023/03/01 09:56:40;;;;;;;0.10;0.10;;;;;;;5.43;62.44;103052.94;5031894;28;20033;-83
2023/03/01 09:59:35;;;;;;;0.10;0.10;;;;;;;5.55;62.51;103052.50;5031792;28;20014;-83
2023/03/01 10:07:41;;;;;;;0.10;0.10;;;;;;;5.94;62.09;103041.59;5116636;27;20044;-84
2023/03/01 10:10:16;;;;;;;1.10;1.10;;;;;;;6.01;60.63;103044.44;5084411;28;20040;-84
2023/03/01 10:12:44;;;;;;;0.45;0.45;;;;;;;6.13;61.72;103045.78;5096616;28;20032;-83
2023/03/01 10:18:12;;;;;;;0.10;0.10;;;;;;;6.36;60.46;103032.50;5008527;28;20387;-82
2023/03/01 10:21:13;;;;;;;0.50;0.50;;;;;;;6.47;59.64;103031.09;5008591;28;20042;-82
2023/03/01 10:23:39;;;;;;;0.43;0.43;;;;;;;6.52;60.88;103033.88;5006834;28;20029;-83
2023/03/01 10:26:25;;;;;;;0.10;0.10;;;;;;;6.68;57.40;103021.19;5007137;28;20522;-83
2023/03/01 10:29:02;;;;;;;0.10;0.10;;;;;;;6.71;58.51;103019.53;5008106;28;20034;-82
2023/03/01 10:31:42;;;;;;;0.10;0.10;;;;;;;6.80;57.76;103017.22;5007767;28;20029;-82
2023/03/01 10:36:55;;;;;;;0.35;0.35;;;;;;;6.96;55.65;103012.41;5104008;27;1171870;-83
2023/03/01 10:39:25;;;;;;;0.20;0.20;;;;;;;7.10;58.58;103008.44;5124489;27;20035;-83
2023/03/01 10:44:37;;;;;;;0.10;0.10;;;;;;;7.26;55.03;103014.13;5111169;27;1155094;-84
2023/03/01 10:47:04;;;;;;;0.10;0.10;;;;;;;7.31;54.87;103012.53;5130899;28;20051;-85
2023/03/01 10:49:31;;;;;;;0.38;0.38;;;;;;;7.42;54.82;103008.44;5126617;28;20025;-83
2023/03/01 10:52:19;;;;;;;0.10;0.10;;;;;;;7.59;55.29;103001.00;5136865;27;20486;-82
2023/03/01 10:54:55;;;;;;;0.32;0.32;;;;;;;7.66;55.01;102994.13;5127242;28;20027;-84
2023/03/01 10:57:32;;;;;;;0.15;0.15;;;;;;;7.76;55.04;102993.56;5139781;27;20026;-83
2023/03/01 11:00:22;;;;;;;0.10;0.10;;;;;;;7.80;52.90;102973.41;5129305;27;20073;-83
2023/03/01 11:02:51;;;;;;;0.57;0.57;;;;;;;7.85;50.67;102968.22;5131526;28;20058;-85
2023/03/01 11:05:23;;;;;;;0.10;0.10;;;;;;;7.93;51.01;102961.41;5128840;27;20036;-84
2023/03/01 11:10:34;;;;;;;0.50;0.50;;;;;;;8.12;52.10;102961.88;5105975;27;1162267;-85
2023/03/01 11:13:16;;;;;;;0.10;0.10;;;;;;;8.23;51.44;102947.16;5139108;27;20044;-85
2023/03/01 11:15:42;;;;;;;0.20;0.20;;;;;;;8.27;51.19;102949.03;5122409;27;20440;-84
2023/03/01 11:18:20;;;;;;;0.10;0.10;;;;;;;8.38;49.34;102933.44;5117402;28;20035;-84
2023/03/01 11:20:48;;;;;;;0.10;0.10;;;;;;;8.43;50.26;102932.66;5117486;28;20050;-85
2023/03/01 11:23:15;;;;;;;0.20;0.20;;;;;;;8.50;49.14;102928.47;5117995;28;20024;-81
2023/03/01 11:25:58;;;;;;;0.10;0.10;;;;;;;8.58;49.07;102925.97;5119317;28;20036;-86
2023/03/01 11:28:26;;;;;;;0.13;0.13;;;;;;;8.66;48.37;102940.25;5133063;28;20034;-84
2023/03/01 11:31:12;;;;;;;0.10;0.10;;;;;;;8.74;47.63;102928.06;5118815;28;20089;-85
2023/03/01 11:33:53;;;;;;;0.13;0.13;;;;;;;8.79;48.10;102936.13;5116232;28;20023;-82
2023/03/01 11:36:31;;;;;;;0.73;0.73;;;;;;;8.87;46.64;102930.97;5111082;28;20028;-84
2023/03/01 11:39:02;;;;;;;0.10;0.10;;;;;;;8.90;46.79;102934.59;5117247;28;20023;-84
2023/03/01 11:41:32;;;;;;;0.10;0.10;;;;;;;8.98;47.19;102924.16;5119081;28;20031;-84
2023/03/01 11:44:14;;;;;;;0.10;0.10;;;;;;;9.10;47.34;102926.16;5118685;28;20048;-85
2023/03/01 11:49:34;;;;;;;0.40;0.40;;;;;;;9.30;47.16;102915.97;5007002;28;20133;-84
2023/03/01 11:52:24;;;;;;;0.10;0.10;;;;;;;9.37;47.23;102917.88;5006984;28;20049;-82
2023/03/01 11:58:07;;;;;;;0.10;0.10;;;;;;;9.62;45.14;102905.06;5152249;27;20384;-83
2023/03/01 12:03:41;;;;;;;0.57;0.57;;;;;;;9.64;43.46;102892.75;5097609;27;1255201;-82
2023/03/01 12:06:47;;;;;;;0.10;0.10;;;;;;;9.71;43.90;102899.03;5115695;28;20473;-84
2023/03/01 12:12:37;;;;;;;0.13;0.13;;;;;;;9.95;45.36;102893.25;5098903;27;1182822;-85
2023/03/01 12:20:49;;;;;;;0.10;0.10;;;;;;;10.06;43.02;102884.59;5123294;27;20327;-82
2023/03/01 12:29:08;;;;;;;0.45;0.45;;;;;;;10.19;41.85;102867.97;5094227;27;20386;-85
2023/03/01 12:35:14;;;;;;;0.10;0.10;;;;;;;10.33;42.86;102857.56;5088334;28;20365;-86
2023/03/01 12:38:04;;;;;;;0.10;0.10;;;;;;;10.38;43.25;102866.53;5065578;28;20036;-86
2023/03/01 12:40:52;;;;;;;0.55;0.55;;;;;;;10.43;42.36;102861.28;5077294;28;20036;-83